sensor_id;sensor_type;location;lat;lon;timestamp;pressure;altitude;pressure_sealevel;temperature
67501;BMP180;54349;52.528;19.760;2023-04-05T00:01:37;101239.60;;;22.10
67501;BMP180;54349;52.528;19.760;2023-04-05T00:04:05;101239.80;;;22.10
67501;BMP180;54349;52.528;19.760;2023-04-05T00:06:35;101240.60;;;22.10
67501;BMP180;54349;52.528;19.760;2023-04-05T00:09:07;101239.20;;;22.10
67501;BMP180;54349;52.528;19.760;2023-04-05T00:11:35;101235.80;;;22.10
67501;BMP180;54349;52.528;19.760;2023-04-05T00:14:05;101237.20;;;22.10
67501;BMP180;54349;52.528;19.760;2023-04-05T00:16:35;101237.00;;;22.10
67501;BMP180;54349;52.528;19.760;2023-04-05T00:19:04;101239.60;;;22.10
67501;BMP180;54349;52.528;19.760;2023-04-05T00:21:34;101235.00;;;22.10
67501;BMP180;54349;52.528;19.760;2023-04-05T00:24:02;101233.80;;;22.10
67501;BMP180;54349;52.528;19.760;2023-04-05T00:26:32;101238.20;;;22.10
67501;BMP180;54349;52.528;19.760;2023-04-05T00:29:02;101236.40;;;22.10
67501;BMP180;54349;52.528;19.760;2023-04-05T00:31:36;101236.80;;;22.00
67501;BMP180;54349;52.528;19.760;2023-04-05T00:34:05;101232.20;;;22.00
67501;BMP180;54349;52.528;19.760;2023-04-05T00:36:36;101228.00;;;21.92
67501;BMP180;54349;52.528;19.760;2023-04-05T00:39:04;101226.60;;;21.90
67501;BMP180;54349;52.528;19.760;2023-04-05T00:41:32;101222.60;;;21.90
67501;BMP180;54349;52.528;19.760;2023-04-05T00:44:01;101215.40;;;21.80
67501;BMP180;54349;52.528;19.760;2023-04-05T00:46:34;101217.60;;;21.80
67501;BMP180;54349;52.528;19.760;2023-04-05T00:49:03;101217.20;;;21.80
67501;BMP180;54349;52.528;19.760;2023-04-05T00:51:32;101215.80;;;21.70
67501;BMP180;54349;52.528;19.760;2023-04-05T00:54:01;101218.00;;;21.70
67501;BMP180;54349;52.528;19.760;2023-04-05T00:56:30;101218.80;;;21.68
67501;BMP180;54349;52.528;19.760;2023-04-05T00:58:59;101217.00;;;21.60
67501;BMP180;54349;52.528;19.760;2023-04-05T01:01:28;101219.20;;;21.60
67501;BMP180;54349;52.528;19.760;2023-04-05T01:04:00;101212.60;;;21.50
67501;BMP180;54349;52.528;19.760;2023-04-05T01:12:08;101206.80;;;21.40
67501;BMP180;54349;52.528;19.760;2023-04-05T01:14:48;101204.40;;;21.40
67501;BMP180;54349;52.528;19.760;2023-04-05T01:17:20;101208.00;;;21.40
67501;BMP180;54349;52.528;19.760;2023-04-05T01:19:56;101202.40;;;21.30
67501;BMP180;54349;52.528;19.760;2023-04-05T01:31:58;101200.00;;;21.14
67501;BMP180;54349;52.528;19.760;2023-04-05T01:34:47;101196.00;;;21.10
67501;BMP180;54349;52.528;19.760;2023-04-05T01:37:22;101198.00;;;21.04
67501;BMP180;54349;52.528;19.760;2023-04-05T01:39:54;101194.40;;;21.00
67501;BMP180;54349;52.528;19.760;2023-04-05T01:42:25;101193.20;;;21.00
67501;BMP180;54349;52.528;19.760;2023-04-05T01:44:55;101190.80;;;20.98
67501;BMP180;54349;52.528;19.760;2023-04-05T01:47:25;101186.20;;;20.90
67501;BMP180;54349;52.528;19.760;2023-04-05T01:49:55;101186.00;;;20.90
67501;BMP180;54349;52.528;19.760;2023-04-05T01:52:26;101182.60;;;20.86
67501;BMP180;54349;52.528;19.760;2023-04-05T01:54:55;101184.00;;;20.80
67501;BMP180;54349;52.528;19.760;2023-04-05T01:57:24;101180.60;;;20.80
67501;BMP180;54349;52.528;19.760;2023-04-05T01:59:52;101178.80;;;20.80
67501;BMP180;54349;52.528;19.760;2023-04-05T02:02:20;101181.40;;;20.70
67501;BMP180;54349;52.528;19.760;2023-04-05T02:04:48;101182.60;;;20.70
67501;BMP180;54349;52.528;19.760;2023-04-05T02:07:16;101176.20;;;20.70
67501;BMP180;54349;52.528;19.760;2023-04-05T02:09:45;101176.40;;;20.60
67501;BMP180;54349;52.528;19.760;2023-04-05T02:12:16;101169.80;;;20.60
67501;BMP180;54349;52.528;19.760;2023-04-05T02:14:44;101168.80;;;20.60
67501;BMP180;54349;52.528;19.760;2023-04-05T02:17:15;101165.20;;;20.58
67501;BMP180;54349;52.528;19.760;2023-04-05T02:19:44;101162.00;;;20.50
67501;BMP180;54349;52.528;19.760;2023-04-05T02:22:14;101160.20;;;20.50
67501;BMP180;54349;52.528;19.760;2023-04-05T02:24:45;101164.80;;;20.50
67501;BMP180;54349;52.528;19.760;2023-04-05T02:27:13;101162.40;;;20.50
67501;BMP180;54349;52.528;19.760;2023-04-05T02:29:48;101162.60;;;20.48
67501;BMP180;54349;52.528;19.760;2023-04-05T02:32:19;101164.20;;;20.42
67501;BMP180;54349;52.528;19.760;2023-04-05T02:34:49;101169.60;;;20.40
67501;BMP180;54349;52.528;19.760;2023-04-05T02:37:20;101165.20;;;20.40
67501;BMP180;54349;52.528;19.760;2023-04-05T02:39:48;101167.80;;;20.40
67501;BMP180;54349;52.528;19.760;2023-04-05T02:42:16;101167.00;;;20.40
67501;BMP180;54349;52.528;19.760;2023-04-05T02:44:44;101168.20;;;20.40
67501;BMP180;54349;52.528;19.760;2023-04-05T02:47:14;101168.80;;;20.32
67501;BMP180;54349;52.528;19.760;2023-04-05T02:49:53;101169.00;;;20.32
67501;BMP180;54349;52.528;19.760;2023-04-05T02:52:22;101168.40;;;20.30
67501;BMP180;54349;52.528;19.760;2023-04-05T02:54:50;101171.00;;;20.30
67501;BMP180;54349;52.528;19.760;2023-04-05T02:57:24;101175.60;;;20.30
67501;BMP180;54349;52.528;19.760;2023-04-05T02:59:58;101169.80;;;20.30
67501;BMP180;54349;52.528;19.760;2023-04-05T03:02:26;101166.60;;;20.30
67501;BMP180;54349;52.528;19.760;2023-04-05T03:04:56;101166.00;;;20.22
67501;BMP180;54349;52.528;19.760;2023-04-05T03:07:24;101167.40;;;20.20
67501;BMP180;54349;52.528;19.760;2023-04-05T03:09:53;101172.60;;;20.20
67501;BMP180;54349;52.528;19.760;2023-04-05T03:12:22;101171.80;;;20.20
67501;BMP180;54349;52.528;19.760;2023-04-05T03:14:52;101170.20;;;20.16
67501;BMP180;54349;52.528;19.760;2023-04-05T03:17:22;101169.60;;;20.10
67501;BMP180;54349;52.528;19.760;2023-04-05T03:19:58;101166.00;;;20.10
67501;BMP180;54349;52.528;19.760;2023-04-05T03:22:28;101166.00;;;20.10
67501;BMP180;54349;52.528;19.760;2023-04-05T03:24:56;101166.80;;;20.10
67501;BMP180;54349;52.528;19.760;2023-04-05T03:27:26;101163.60;;;20.10
67501;BMP180;54349;52.528;19.760;2023-04-05T03:30:09;101163.60;;;20.02
67501;BMP180;54349;52.528;19.760;2023-04-05T03:32:44;101166.60;;;20.00
67501;BMP180;54349;52.528;19.760;2023-04-05T03:35:36;101168.00;;;20.00
67501;BMP180;54349;52.528;19.760;2023-04-05T03:38:06;101166.60;;;20.00
67501;BMP180;54349;52.528;19.760;2023-04-05T03:40:38;101168.60;;;20.00
67501;BMP180;54349;52.528;19.760;2023-04-05T03:43:10;101163.80;;;20.10
67501;BMP180;54349;52.528;19.760;2023-04-05T03:45:39;101166.60;;;20.12
67501;BMP180;54349;52.528;19.760;2023-04-05T03:48:09;101163.60;;;20.20
67501;BMP180;54349;52.528;19.760;2023-04-05T03:50:39;101161.20;;;20.22
67501;BMP180;54349;52.528;19.760;2023-04-05T03:53:08;101157.40;;;20.30
67501;BMP180;54349;52.528;19.760;2023-04-05T03:55:37;101161.20;;;20.40
67501;BMP180;54349;52.528;19.760;2023-04-05T03:58:07;101164.80;;;20.46
67501;BMP180;54349;52.528;19.760;2023-04-05T04:00:36;101163.40;;;20.50
67501;BMP180;54349;52.528;19.760;2023-04-05T04:03:30;101171.00;;;20.60
67501;BMP180;54349;52.528;19.760;2023-04-05T04:05:59;101171.00;;;20.60
67501;BMP180;54349;52.528;19.760;2023-04-05T04:08:29;101173.00;;;20.70
67501;BMP180;54349;52.528;19.760;2023-04-05T04:10:59;101173.00;;;20.80
67501;BMP180;54349;52.528;19.760;2023-04-05T04:13:30;101174.40;;;20.90
67501;BMP180;54349;52.528;19.760;2023-04-05T04:16:21;101176.00;;;20.90
67501;BMP180;54349;52.528;19.760;2023-04-05T04:19:02;101179.60;;;20.90
67501;BMP180;54349;52.528;19.760;2023-04-05T04:21:44;101179.00;;;21.00
67501;BMP180;54349;52.528;19.760;2023-04-05T04:24:24;101184.40;;;21.10
67501;BMP180;54349;52.528;19.760;2023-04-05T04:27:34;101186.80;;;21.10
67501;BMP180;54349;52.528;19.760;2023-04-05T04:30:16;101189.80;;;21.12
67501;BMP180;54349;52.528;19.760;2023-04-05T04:32:44;101188.20;;;21.20
67501;BMP180;54349;52.528;19.760;2023-04-05T04:35:38;101193.20;;;21.30
67501;BMP180;54349;52.528;19.760;2023-04-05T04:38:30;101190.80;;;21.30
67501;BMP180;54349;52.528;19.760;2023-04-05T04:41:27;101196.40;;;21.30
67501;BMP180;54349;52.528;19.760;2023-04-05T04:44:10;101190.80;;;21.30
67501;BMP180;54349;52.528;19.760;2023-04-05T04:47:14;101191.00;;;21.40
67501;BMP180;54349;52.528;19.760;2023-04-05T04:49:58;101189.00;;;21.40
67501;BMP180;54349;52.528;19.760;2023-04-05T04:52:28;101191.40;;;21.40
67501;BMP180;54349;52.528;19.760;2023-04-05T04:54:57;101189.60;;;21.40
67501;BMP180;54349;52.528;19.760;2023-04-05T04:57:26;101189.80;;;21.50
67501;BMP180;54349;52.528;19.760;2023-04-05T04:59:54;101192.00;;;21.48
67501;BMP180;54349;52.528;19.760;2023-04-05T05:02:24;101191.20;;;21.44
67501;BMP180;54349;52.528;19.760;2023-04-05T05:04:53;101195.40;;;21.48
67501;BMP180;54349;52.528;19.760;2023-04-05T05:07:24;101198.00;;;21.50
67501;BMP180;54349;52.528;19.760;2023-04-05T05:09:52;101202.40;;;21.50
67501;BMP180;54349;52.528;19.760;2023-04-05T05:12:21;101202.00;;;21.50
67501;BMP180;54349;52.528;19.760;2023-04-05T05:14:51;101198.40;;;21.50
67501;BMP180;54349;52.528;19.760;2023-04-05T05:17:22;101199.60;;;21.50
67501;BMP180;54349;52.528;19.760;2023-04-05T05:19:50;101197.60;;;21.50
67501;BMP180;54349;52.528;19.760;2023-04-05T05:22:21;101199.60;;;21.46
67501;BMP180;54349;52.528;19.760;2023-04-05T05:24:50;101198.00;;;21.50
67501;BMP180;54349;52.528;19.760;2023-04-05T05:27:19;101200.80;;;21.50
67501;BMP180;54349;52.528;19.760;2023-04-05T05:29:49;101204.00;;;21.52
67501;BMP180;54349;52.528;19.760;2023-04-05T05:32:17;101206.60;;;21.56
67501;BMP180;54349;52.528;19.760;2023-04-05T05:34:48;101209.20;;;21.60
67501;BMP180;54349;52.528;19.760;2023-04-05T05:37:31;101208.20;;;21.60
67501;BMP180;54349;52.528;19.760;2023-04-05T05:40:02;101207.60;;;21.60
67501;BMP180;54349;52.528;19.760;2023-04-05T05:42:34;101212.20;;;21.60
67501;BMP180;54349;52.528;19.760;2023-04-05T05:45:06;101215.80;;;21.58
67501;BMP180;54349;52.528;19.760;2023-04-05T05:47:34;101210.00;;;21.50
67501;BMP180;54349;52.528;19.760;2023-04-05T05:50:04;101214.20;;;21.50
67501;BMP180;54349;52.528;19.760;2023-04-05T05:52:33;101215.80;;;21.50
67501;BMP180;54349;52.528;19.760;2023-04-05T05:55:05;101216.00;;;21.50
67501;BMP180;54349;52.528;19.760;2023-04-05T05:57:34;101215.00;;;21.50
67501;BMP180;54349;52.528;19.760;2023-04-05T06:00:05;101218.20;;;21.50
67501;BMP180;54349;52.528;19.760;2023-04-05T06:02:41;101220.40;;;21.50
67501;BMP180;54349;52.528;19.760;2023-04-05T06:05:10;101216.20;;;21.50
67501;BMP180;54349;52.528;19.760;2023-04-05T06:07:39;101219.60;;;21.56
67501;BMP180;54349;52.528;19.760;2023-04-05T06:10:10;101221.40;;;21.60
67501;BMP180;54349;52.528;19.760;2023-04-05T06:12:40;101216.80;;;21.60
67501;BMP180;54349;52.528;19.760;2023-04-05T06:15:09;101216.80;;;21.60
67501;BMP180;54349;52.528;19.760;2023-04-05T06:17:37;101218.80;;;21.60
67501;BMP180;54349;52.528;19.760;2023-04-05T06:20:10;101221.60;;;21.70
67501;BMP180;54349;52.528;19.760;2023-04-05T06:22:39;101223.80;;;21.70
67501;BMP180;54349;52.528;19.760;2023-04-05T06:25:09;101218.60;;;21.70
67501;BMP180;54349;52.528;19.760;2023-04-05T06:27:39;101221.40;;;21.70
67501;BMP180;54349;52.528;19.760;2023-04-05T06:30:08;101223.80;;;21.80
67501;BMP180;54349;52.528;19.760;2023-04-05T06:32:36;101220.20;;;21.80
67501;BMP180;54349;52.528;19.760;2023-04-05T06:35:06;101224.40;;;21.88
67501;BMP180;54349;52.528;19.760;2023-04-05T06:37:34;101225.20;;;21.90
67501;BMP180;54349;52.528;19.760;2023-04-05T06:40:03;101229.60;;;21.90
67501;BMP180;54349;52.528;19.760;2023-04-05T06:42:31;101226.40;;;21.90
67501;BMP180;54349;52.528;19.760;2023-04-05T06:45:00;101228.20;;;22.00
67501;BMP180;54349;52.528;19.760;2023-04-05T06:47:36;101228.40;;;22.00
67501;BMP180;54349;52.528;19.760;2023-04-05T06:50:08;101229.80;;;22.00
67501;BMP180;54349;52.528;19.760;2023-04-05T06:52:38;101234.20;;;22.00
67501;BMP180;54349;52.528;19.760;2023-04-05T06:55:07;101231.20;;;22.10
67501;BMP180;54349;52.528;19.760;2023-04-05T06:57:35;101233.60;;;22.10
67501;BMP180;54349;52.528;19.760;2023-04-05T07:00:05;101230.20;;;22.10
67501;BMP180;54349;52.528;19.760;2023-04-05T07:02:38;101229.20;;;22.10
67501;BMP180;54349;52.528;19.760;2023-04-05T07:05:09;101232.60;;;22.10
67501;BMP180;54349;52.528;19.760;2023-04-05T07:07:39;101226.40;;;22.10
67501;BMP180;54349;52.528;19.760;2023-04-05T07:10:08;101226.20;;;22.10
67501;BMP180;54349;52.528;19.760;2023-04-05T07:12:38;101232.40;;;22.18
67501;BMP180;54349;52.528;19.760;2023-04-05T07:15:07;101234.00;;;22.20
67501;BMP180;54349;52.528;19.760;2023-04-05T07:17:36;101233.60;;;22.20
67501;BMP180;54349;52.528;19.760;2023-04-05T07:20:05;101237.60;;;22.20
67501;BMP180;54349;52.528;19.760;2023-04-05T07:22:35;101238.20;;;22.20
67501;BMP180;54349;52.528;19.760;2023-04-05T07:25:05;101237.80;;;22.20
67501;BMP180;54349;52.528;19.760;2023-04-05T07:27:36;101236.80;;;22.20
67501;BMP180;54349;52.528;19.760;2023-04-05T07:30:09;101241.00;;;22.20
67501;BMP180;54349;52.528;19.760;2023-04-05T07:32:42;101240.80;;;22.24
67501;BMP180;54349;52.528;19.760;2023-04-05T07:35:11;101246.80;;;22.30
67501;BMP180;54349;52.528;19.760;2023-04-05T07:37:40;101243.60;;;22.30
67501;BMP180;54349;52.528;19.760;2023-04-05T07:40:08;101247.60;;;22.30
67501;BMP180;54349;52.528;19.760;2023-04-05T07:42:38;101247.60;;;22.30
67501;BMP180;54349;52.528;19.760;2023-04-05T07:45:08;101245.00;;;22.30
67501;BMP180;54349;52.528;19.760;2023-04-05T07:47:37;101244.20;;;22.30
67501;BMP180;54349;52.528;19.760;2023-04-05T07:50:06;101247.00;;;22.36
67501;BMP180;54349;52.528;19.760;2023-04-05T07:52:37;101243.20;;;22.38
67501;BMP180;54349;52.528;19.760;2023-04-05T07:55:08;101240.00;;;22.40
67501;BMP180;54349;52.528;19.760;2023-04-05T07:57:36;101241.40;;;22.40
67501;BMP180;54349;52.528;19.760;2023-04-05T08:00:05;101244.60;;;22.40
67501;BMP180;54349;52.528;19.760;2023-04-05T08:02:43;101239.00;;;22.40
67501;BMP180;54349;52.528;19.760;2023-04-05T08:05:11;101239.60;;;22.40
67501;BMP180;54349;52.528;19.760;2023-04-05T08:07:40;101236.20;;;22.40
67501;BMP180;54349;52.528;19.760;2023-04-05T08:10:09;101241.20;;;22.40
67501;BMP180;54349;52.528;19.760;2023-04-05T08:12:39;101240.20;;;22.40
67501;BMP180;54349;52.528;19.760;2023-04-05T08:15:08;101242.60;;;22.40
67501;BMP180;54349;52.528;19.760;2023-04-05T08:17:37;101241.80;;;22.40
67501;BMP180;54349;52.528;19.760;2023-04-05T08:20:06;101239.80;;;22.40
67501;BMP180;54349;52.528;19.760;2023-04-05T08:22:35;101242.40;;;22.40
67501;BMP180;54349;52.528;19.760;2023-04-05T08:25:04;101247.40;;;22.40
67501;BMP180;54349;52.528;19.760;2023-04-05T08:27:33;101249.00;;;22.40
67501;BMP180;54349;52.528;19.760;2023-04-05T08:30:02;101244.00;;;22.40
67501;BMP180;54349;52.528;19.760;2023-04-05T08:32:36;101241.20;;;22.30
67501;BMP180;54349;52.528;19.760;2023-04-05T08:35:08;101247.80;;;22.30
67501;BMP180;54349;52.528;19.760;2023-04-05T08:37:36;101249.40;;;22.30
67501;BMP180;54349;52.528;19.760;2023-04-05T08:40:05;101252.40;;;22.20
67501;BMP180;54349;52.528;19.760;2023-04-05T08:42:45;101252.20;;;22.20
67501;BMP180;54349;52.528;19.760;2023-04-05T08:45:19;101245.40;;;22.10
67501;BMP180;54349;52.528;19.760;2023-04-05T08:47:51;101248.20;;;22.10
67501;BMP180;54349;52.528;19.760;2023-04-05T08:50:22;101247.40;;;22.00
67501;BMP180;54349;52.528;19.760;2023-04-05T08:52:51;101246.80;;;22.00
67501;BMP180;54349;52.528;19.760;2023-04-05T08:55:20;101245.60;;;22.00
67501;BMP180;54349;52.528;19.760;2023-04-05T08:57:52;101244.60;;;21.98
67501;BMP180;54349;52.528;19.760;2023-04-05T09:00:21;101248.60;;;22.00
67501;BMP180;54349;52.528;19.760;2023-04-05T09:02:55;101247.60;;;22.00
67501;BMP180;54349;52.528;19.760;2023-04-05T09:05:26;101247.20;;;22.00
67501;BMP180;54349;52.528;19.760;2023-04-05T09:08:00;101246.00;;;22.00
67501;BMP180;54349;52.528;19.760;2023-04-05T09:10:29;101244.80;;;22.10
67501;BMP180;54349;52.528;19.760;2023-04-05T09:12:59;101242.20;;;22.10
67501;BMP180;54349;52.528;19.760;2023-04-05T09:15:29;101251.80;;;22.20
67501;BMP180;54349;52.528;19.760;2023-04-05T09:17:57;101250.00;;;22.20
67501;BMP180;54349;52.528;19.760;2023-04-05T09:20:26;101249.40;;;22.20
67501;BMP180;54349;52.528;19.760;2023-04-05T09:22:56;101246.80;;;22.20
67501;BMP180;54349;52.528;19.760;2023-04-05T09:27:59;101242.80;;;22.30
67501;BMP180;54349;52.528;19.760;2023-04-05T09:30:27;101243.80;;;22.32
67501;BMP180;54349;52.528;19.760;2023-04-05T09:32:56;101239.00;;;22.40
67501;BMP180;54349;52.528;19.760;2023-04-05T09:35:30;101240.00;;;22.40
67501;BMP180;54349;52.528;19.760;2023-04-05T09:38:03;101245.20;;;22.40
67501;BMP180;54349;52.528;19.760;2023-04-05T09:40:46;101245.60;;;22.50
67501;BMP180;54349;52.528;19.760;2023-04-05T09:43:41;101242.40;;;22.54
67501;BMP180;54349;52.528;19.760;2023-04-05T09:46:35;101236.40;;;22.60
67501;BMP180;54349;52.528;19.760;2023-04-05T09:49:07;101237.60;;;22.70
67501;BMP180;54349;52.528;19.760;2023-04-05T09:51:38;101234.00;;;22.70
67501;BMP180;54349;52.528;19.760;2023-04-05T09:54:10;101234.80;;;22.70
67501;BMP180;54349;52.528;19.760;2023-04-05T09:56:40;101238.20;;;22.68
67501;BMP180;54349;52.528;19.760;2023-04-05T09:59:20;101240.20;;;22.70
67501;BMP180;54349;52.528;19.760;2023-04-05T10:01:50;101240.00;;;22.80
67501;BMP180;54349;52.528;19.760;2023-04-05T10:04:19;101240.00;;;22.80
67501;BMP180;54349;52.528;19.760;2023-04-05T10:06:51;101241.40;;;22.80
67501;BMP180;54349;52.528;19.760;2023-04-05T10:09:20;101240.40;;;22.80
67501;BMP180;54349;52.528;19.760;2023-04-05T10:11:49;101241.60;;;22.80
67501;BMP180;54349;52.528;19.760;2023-04-05T10:14:19;101243.80;;;22.84
67501;BMP180;54349;52.528;19.760;2023-04-05T10:17:23;101245.60;;;22.90
67501;BMP180;54349;52.528;19.760;2023-04-05T10:20:18;101243.60;;;22.90
67501;BMP180;54349;52.528;19.760;2023-04-05T10:23:00;101242.60;;;22.90
67501;BMP180;54349;52.528;19.760;2023-04-05T10:28:36;101242.80;;;22.90
67501;BMP180;54349;52.528;19.760;2023-04-05T10:32:51;101238.20;;;22.96
67501;BMP180;54349;52.528;19.760;2023-04-05T10:35:51;101237.00;;;23.00
67501;BMP180;54349;52.528;19.760;2023-04-05T10:38:28;101237.40;;;23.08
67501;BMP180;54349;52.528;19.760;2023-04-05T10:41:12;101239.80;;;23.10
67501;BMP180;54349;52.528;19.760;2023-04-05T10:43:45;101237.40;;;23.10
67501;BMP180;54349;52.528;19.760;2023-04-05T10:46:19;101236.40;;;23.10
67501;BMP180;54349;52.528;19.760;2023-04-05T10:49:09;101234.20;;;23.10
67501;BMP180;54349;52.528;19.760;2023-04-05T10:51:40;101232.00;;;23.20
67501;BMP180;54349;52.528;19.760;2023-04-05T10:54:14;101232.00;;;23.20
67501;BMP180;54349;52.528;19.760;2023-04-05T10:56:46;101227.40;;;23.20
67501;BMP180;54349;52.528;19.760;2023-04-05T10:59:15;101230.00;;;23.20
67501;BMP180;54349;52.528;19.760;2023-04-05T11:01:46;101235.80;;;23.20
67501;BMP180;54349;52.528;19.760;2023-04-05T11:04:16;101238.20;;;23.20
67501;BMP180;54349;52.528;19.760;2023-04-05T11:06:45;101232.80;;;23.20
67501;BMP180;54349;52.528;19.760;2023-04-05T11:09:18;101232.40;;;23.20
67501;BMP180;54349;52.528;19.760;2023-04-05T11:11:51;101230.40;;;23.20
67501;BMP180;54349;52.528;19.760;2023-04-05T11:14:24;101226.00;;;23.20
67501;BMP180;54349;52.528;19.760;2023-04-05T11:16:55;101225.40;;;23.20
67501;BMP180;54349;52.528;19.760;2023-04-05T11:19:48;101228.40;;;23.20
67501;BMP180;54349;52.528;19.760;2023-04-05T11:22:27;101229.40;;;23.20
67501;BMP180;54349;52.528;19.760;2023-04-05T11:25:01;101223.80;;;23.20
67501;BMP180;54349;52.528;19.760;2023-04-05T11:27:34;101218.80;;;23.20
67501;BMP180;54349;52.528;19.760;2023-04-05T11:30:06;101218.00;;;23.24
67501;BMP180;54349;52.528;19.760;2023-04-05T11:32:44;101221.60;;;23.30
67501;BMP180;54349;52.528;19.760;2023-04-05T11:35:19;101222.00;;;23.30
67501;BMP180;54349;52.528;19.760;2023-04-05T11:40:36;101218.00;;;23.40
67501;BMP180;54349;52.528;19.760;2023-04-05T11:43:10;101219.80;;;23.40
67501;BMP180;54349;52.528;19.760;2023-04-05T11:45:41;101219.60;;;23.40
67501;BMP180;54349;52.528;19.760;2023-04-05T11:48:13;101221.00;;;23.40
67501;BMP180;54349;52.528;19.760;2023-04-05T11:50:49;101219.60;;;23.50
67501;BMP180;54349;52.528;19.760;2023-04-05T11:53:23;101220.20;;;23.50
67501;BMP180;54349;52.528;19.760;2023-04-05T11:55:54;101218.20;;;23.50
67501;BMP180;54349;52.528;19.760;2023-04-05T11:58:28;101214.20;;;23.50
67501;BMP180;54349;52.528;19.760;2023-04-05T12:01:05;101212.40;;;23.50
67501;BMP180;54349;52.528;19.760;2023-04-05T12:03:36;101212.40;;;23.58
67501;BMP180;54349;52.528;19.760;2023-04-05T12:06:07;101218.80;;;23.60
67501;BMP180;54349;52.528;19.760;2023-04-05T12:08:41;101212.20;;;23.60
67501;BMP180;54349;52.528;19.760;2023-04-05T12:11:11;101209.00;;;23.60
67501;BMP180;54349;52.528;19.760;2023-04-05T12:13:45;101205.00;;;23.60
67501;BMP180;54349;52.528;19.760;2023-04-05T12:16:18;101207.20;;;23.60
67501;BMP180;54349;52.528;19.760;2023-04-05T12:18:56;101206.80;;;23.60
67501;BMP180;54349;52.528;19.760;2023-04-05T12:21:27;101205.40;;;23.60
67501;BMP180;54349;52.528;19.760;2023-04-05T12:23:58;101206.60;;;23.60
67501;BMP180;54349;52.528;19.760;2023-04-05T12:26:30;101203.20;;;23.60
67501;BMP180;54349;52.528;19.760;2023-04-05T12:29:05;101201.40;;;23.60
67501;BMP180;54349;52.528;19.760;2023-04-05T12:31:42;101203.80;;;23.60
67501;BMP180;54349;52.528;19.760;2023-04-05T12:34:13;101202.20;;;23.60
67501;BMP180;54349;52.528;19.760;2023-04-05T12:36:47;101199.40;;;23.64
67501;BMP180;54349;52.528;19.760;2023-04-05T12:39:21;101199.60;;;23.70
67501;BMP180;54349;52.528;19.760;2023-04-05T12:41:58;101194.60;;;23.70
67501;BMP180;54349;52.528;19.760;2023-04-05T12:44:32;101192.20;;;23.70
67501;BMP180;54349;52.528;19.760;2023-04-05T12:47:04;101195.00;;;23.80
67501;BMP180;54349;52.528;19.760;2023-04-05T12:49:38;101196.20;;;23.80
67501;BMP180;54349;52.528;19.760;2023-04-05T12:52:07;101196.40;;;23.80
67501;BMP180;54349;52.528;19.760;2023-04-05T12:54:38;101202.00;;;23.80
67501;BMP180;54349;52.528;19.760;2023-04-05T12:57:07;101202.20;;;23.88
67501;BMP180;54349;52.528;19.760;2023-04-05T12:59:39;101205.00;;;23.90
67501;BMP180;54349;52.528;19.760;2023-04-05T13:02:09;101207.20;;;23.90
67501;BMP180;54349;52.528;19.760;2023-04-05T13:04:39;101210.00;;;23.90
67501;BMP180;54349;52.528;19.760;2023-04-05T13:07:10;101211.20;;;23.90
67501;BMP180;54349;52.528;19.760;2023-04-05T13:09:41;101210.40;;;23.90
67501;BMP180;54349;52.528;19.760;2023-04-05T13:12:12;101212.00;;;23.90
67501;BMP180;54349;52.528;19.760;2023-04-05T13:14:44;101217.20;;;23.90
67501;BMP180;54349;52.528;19.760;2023-04-05T13:17:17;101215.80;;;23.90
67501;BMP180;54349;52.528;19.760;2023-04-05T13:19:47;101214.40;;;23.90
67501;BMP180;54349;52.528;19.760;2023-04-05T13:22:20;101214.40;;;23.90
67501;BMP180;54349;52.528;19.760;2023-04-05T13:24:50;101216.20;;;23.90
67501;BMP180;54349;52.528;19.760;2023-04-05T13:27:22;101211.00;;;23.90
67501;BMP180;54349;52.528;19.760;2023-04-05T13:29:52;101209.00;;;23.90
67501;BMP180;54349;52.528;19.760;2023-04-05T13:32:22;101204.20;;;23.94
67501;BMP180;54349;52.528;19.760;2023-04-05T13:34:53;101207.00;;;24.00
67501;BMP180;54349;52.528;19.760;2023-04-05T13:37:22;101208.20;;;24.00
67501;BMP180;54349;52.528;19.760;2023-04-05T13:39:52;101212.00;;;24.00
67501;BMP180;54349;52.528;19.760;2023-04-05T13:42:23;101206.20;;;24.00
67501;BMP180;54349;52.528;19.760;2023-04-05T13:44:52;101208.00;;;24.00
67501;BMP180;54349;52.528;19.760;2023-04-05T13:47:21;101205.60;;;24.00
67501;BMP180;54349;52.528;19.760;2023-04-05T13:49:52;101207.80;;;24.00
67501;BMP180;54349;52.528;19.760;2023-04-05T13:52:23;101206.00;;;24.00
67501;BMP180;54349;52.528;19.760;2023-04-05T13:54:55;101207.60;;;24.00
67501;BMP180;54349;52.528;19.760;2023-04-05T13:57:34;101209.00;;;23.92
67501;BMP180;54349;52.528;19.760;2023-04-05T14:00:05;101205.60;;;23.90
67501;BMP180;54349;52.528;19.760;2023-04-05T14:02:44;101204.00;;;23.90
67501;BMP180;54349;52.528;19.760;2023-04-05T14:05:13;101205.20;;;23.90
67501;BMP180;54349;52.528;19.760;2023-04-05T14:07:45;101204.40;;;23.90
67501;BMP180;54349;52.528;19.760;2023-04-05T14:10:16;101207.80;;;23.90
67501;BMP180;54349;52.528;19.760;2023-04-05T14:12:51;101204.40;;;23.90
67501;BMP180;54349;52.528;19.760;2023-04-05T14:15:22;101203.40;;;23.86
67501;BMP180;54349;52.528;19.760;2023-04-05T14:17:53;101201.40;;;23.90
67501;BMP180;54349;52.528;19.760;2023-04-05T14:20:23;101202.00;;;23.90
67501;BMP180;54349;52.528;19.760;2023-04-05T14:22:52;101205.40;;;23.90
67501;BMP180;54349;52.528;19.760;2023-04-05T14:25:23;101205.40;;;23.88
67501;BMP180;54349;52.528;19.760;2023-04-05T14:27:51;101204.40;;;23.84
67501;BMP180;54349;52.528;19.760;2023-04-05T14:30:19;101200.60;;;23.80
67501;BMP180;54349;52.528;19.760;2023-04-05T14:32:48;101205.20;;;23.80
67501;BMP180;54349;52.528;19.760;2023-04-05T14:35:16;101204.40;;;23.80
67501;BMP180;54349;52.528;19.760;2023-04-05T14:37:45;101203.00;;;23.80